createdAt,value
2022-11-16T00:03:44.704Z,26.97
2022-11-16T00:13:46.132Z,25.73
2022-11-16T00:23:47.794Z,24.87
2022-11-16T00:33:49.960Z,22.90
2022-11-16T00:43:51.400Z,22.03
2022-11-16T00:53:53.083Z,22.60
2022-11-16T01:03:55.652Z,22.23
2022-11-16T01:13:57.190Z,25.07
2022-11-16T01:23:58.750Z,28.73
2022-11-16T01:34:00.265Z,27.80
2022-11-16T01:44:32.640Z,27.20
2022-11-16T01:54:46.998Z,26.87
2022-11-16T02:04:51.691Z,26.37
2022-11-16T02:15:30.837Z,32.30
2022-11-16T02:26:31.163Z,28.67
2022-11-16T02:36:35.219Z,28.53
2022-11-16T02:46:39.211Z,30.70
2022-11-16T02:56:47.382Z,29.40
2022-11-16T03:06:51.486Z,30.80
2022-11-16T03:16:59.085Z,30.00
2022-11-16T03:27:12.760Z,28.83
2022-11-16T03:37:15.361Z,31.17
2022-11-16T03:47:16.924Z,33.10
2022-11-16T03:57:19.893Z,30.73
2022-11-16T04:07:46.460Z,30.63
2022-11-16T04:18:08.302Z,27.83
2022-11-16T04:28:13.566Z,30.47
2022-11-16T04:38:19.006Z,28.17
2022-11-16T04:48:21.135Z,28.70
2022-11-16T04:58:26.273Z,29.93
2022-11-16T05:08:28.565Z,31.23
2022-11-16T05:18:31.229Z,27.07
2022-11-16T05:28:33.365Z,28.67
2022-11-16T05:38:36.610Z,26.97
2022-11-16T05:48:40.017Z,28.20
2022-11-16T05:58:43.067Z,27.97
2022-11-16T06:08:44.637Z,25.23
2022-11-16T06:18:50.191Z,24.70
2022-11-16T06:28:54.841Z,26.30
2022-11-16T06:39:00.193Z,25.43
2022-11-16T06:49:03.681Z,25.63
2022-11-16T06:59:05.485Z,22.80
2022-11-16T07:09:08.207Z,20.57
2022-11-16T07:19:10.249Z,18.77
2022-11-16T07:29:15.113Z,19.93
2022-11-16T07:39:32.998Z,17.70
2022-11-16T07:49:34.678Z,16.17
2022-11-16T07:59:51.286Z,15.57
2022-11-16T08:09:52.945Z,15.13
2022-11-16T08:19:55.869Z,15.90
2022-11-16T08:29:59.197Z,15.60
2022-11-16T08:40:02.429Z,13.10
2022-11-16T08:50:05.516Z,14.90
2022-11-16T09:00:08.060Z,14.43
2022-11-16T09:10:10.092Z,16.40
2022-11-16T09:20:11.668Z,13.23
2022-11-16T09:30:13.399Z,13.87
2022-11-16T09:40:15.014Z,14.13
2022-11-16T09:50:43.281Z,13.83
2022-11-16T10:00:53.162Z,12.57
2022-11-16T10:11:19.598Z,13.67
2022-11-16T10:21:42.672Z,13.17
2022-11-16T10:31:59.967Z,13.83
2022-11-16T10:42:07.808Z,13.67
2022-11-16T10:52:09.636Z,13.13
2022-11-16T11:02:36.481Z,13.83
2022-11-16T11:12:38.033Z,13.93
2022-11-16T11:22:52.520Z,15.33
2022-11-16T11:32:54.127Z,16.47
2022-11-16T11:43:01.020Z,16.23
2022-11-16T11:53:07.814Z,16.27
2022-11-16T12:03:35.861Z,19.90
2022-11-16T12:13:54.212Z,28.70
2022-11-16T12:24:23.619Z,27.10
2022-11-16T12:35:02.992Z,23.37
2022-11-16T12:45:27.594Z,23.90
2022-11-16T12:55:49.926Z,19.00
2022-11-16T13:06:15.116Z,18.40
2022-11-16T13:16:17.497Z,18.90
2022-11-16T13:26:27.217Z,16.50
2022-11-16T13:36:39.285Z,16.10
2022-11-16T13:46:55.941Z,16.73
2022-11-16T13:57:00.189Z,15.53
2022-11-16T14:07:01.989Z,14.80
2022-11-16T14:17:05.596Z,15.70
2022-11-16T14:27:17.324Z,14.83
2022-11-16T14:37:21.606Z,17.43
2022-11-16T14:47:28.525Z,18.27
2022-11-16T14:57:30.041Z,21.23
2022-11-16T15:07:31.780Z,20.77
2022-11-16T15:17:34.600Z,21.67
2022-11-16T15:27:43.172Z,20.83
2022-11-16T15:37:44.736Z,25.27
2022-11-16T15:47:47.352Z,35.27
2022-11-16T15:58:11.167Z,27.33
2022-11-16T16:08:24.304Z,29.03
2022-11-16T16:18:40.614Z,29.50
2022-11-16T16:28:42.224Z,31.37
2022-11-16T16:38:44.838Z,37.53
2022-11-16T16:48:46.366Z,28.10
2022-11-16T16:58:47.983Z,30.83
2022-11-16T17:08:49.463Z,33.50
2022-11-16T17:18:57.227Z,32.87
2022-11-16T17:28:58.816Z,28.63
2022-11-16T17:39:00.322Z,28.30
2022-11-16T17:49:01.997Z,26.17
2022-11-16T17:59:03.581Z,31.63
2022-11-16T18:09:05.033Z,30.33
2022-11-16T18:19:06.634Z,26.93
2022-11-16T18:29:12.146Z,35.97
2022-11-16T18:39:13.597Z,25.30
2022-11-16T18:49:15.592Z,30.20
2022-11-16T18:59:17.114Z,29.83
2022-11-16T19:09:18.666Z,27.20
2022-11-16T19:19:21.584Z,37.37
2022-11-16T19:29:23.041Z,29.13
2022-11-16T19:39:24.563Z,30.33
2022-11-16T19:49:26.186Z,33.77
2022-11-16T19:59:27.615Z,26.23
2022-11-16T20:09:29.971Z,26.07
2022-11-16T20:19:41.127Z,22.27
2022-11-16T20:29:42.587Z,21.83
2022-11-16T20:39:46.800Z,19.13
2022-11-16T20:49:48.232Z,19.63
2022-11-16T20:59:49.745Z,21.83
2022-11-16T21:10:10.033Z,21.57
2022-11-16T21:20:27.107Z,33.03
2022-11-16T21:30:29.164Z,22.80
2022-11-16T21:40:30.612Z,21.83
2022-11-16T21:50:32.591Z,25.67
2022-11-16T22:00:34.113Z,27.53
2022-11-16T22:10:35.694Z,25.00
2022-11-16T22:20:37.202Z,21.90
2022-11-16T22:30:38.649Z,22.53
2022-11-16T22:40:40.102Z,24.33
2022-11-16T22:50:42.225Z,23.10
2022-11-16T23:00:43.668Z,27.03
2022-11-16T23:11:03.752Z,25.57
2022-11-16T23:21:24.190Z,19.83
2022-11-16T23:31:25.629Z,19.40
2022-11-16T23:41:45.470Z,24.67
2022-11-16T23:51:46.888Z,21.77
